KPOB/POB METAR and TAF weather

Enter ICAO airport designator
Station Type Date Time Source
KPOB METAR 2019/10/23 06:56 UTC NOAA

KPOB 230656Z AUTO 28004KT 10SM SCT070 15/13 A2996 RMK AO2 SLP147 T01450132 $


Station Type Date Time Source
KPOB Decoded METAR 2019/10/23 06:56 UTC NOAA

Pope Air Force Base, NC, United States (KPOB) 35-10N 079-02W 61M
Oct 23, 2019 - 02:56 AM EDT / 2019.10.23 0656 UTC
Wind: from the W (280 degrees) at 5 MPH (4 KT):0
Visibility: 10 mile(s):0
Sky conditions: partly cloudy
Temperature: 58.1 F (14.5 C)
Dew Point: 55.8 F (13.2 C)
Relative Humidity: 91%
Pressure (altimeter): 29.96 in. Hg (1014 hPa)
ob: KPOB 230656Z AUTO 28004KT 10SM SCT070 15/13 A2996 RMK AO2 SLP147 T01450132
cycle: 7

Station Type Date Time Source
KPOB TAF 2019/10/23 01:07 UTC NOAA

TAF KPOB 230100Z 2301/2407 25006KT 9999 SCT040 SCT250 QNH2981INS
BECMG 2306/2307 32006KT 9999 SCT250 QNH2995INS
BECMG 2315/2316 35006KT 9999 SKC QNH2999INS TX22/2301Z TN10/2311Z

Example: see airport list